Latest Weather Observations for Double Island Point

IDQ60801

Issued at 8:02 am EST Monday 31 August 2015 (issued every 30 minutes, with the page automatically refreshed every 10 minutes)

About weather observations | Map of weather stations | Latest weather observations for QLD | Other Formats
Station Details ID: 040068 Name: DOUBLE ISLAND POINT LIGHTHOUSE Lat: -25.93 Lon: 153.19 Height: 95.64 m
Data from the previous 72 hours. | See also: Recent months at Double Island Point
Date/Time
EST
Temp
°C
App
Temp
°C
Dew
Point
Rel
Hum
%
Delta-T
°C
Wind Press
QNH
hPa
Press
MSL
hPa
Rain
since 9 am
mm
Dir
 
Spd
km/h
Gust
km/h
Spd
kts
Gust
kts
31/08:00am 16.0 11.3 5.3 49 5.1 S 19 26 10 14 1016.1 1015.9 0.0
31/07:30am 15.4 10.6 4.8 49 5.0 SSW 19 26 10 14 1016.0 1015.8 0.0
31/07:00am 14.9 9.4 4.0 48 5.0 SSW 22 28 12 15 1015.6 1015.4 0.0
31/06:30am 14.6 8.3 3.7 48 5.0 SSW 26 30 14 16 1015.3 1015.1 0.0
31/06:00am 14.5 8.2 3.9 49 4.9 SSW 26 32 14 17 1015.1 1014.9 0.0
31/05:30am 14.8 7.8 4.2 49 4.9 SSW 30 35 16 19 1014.8 1014.6 0.0
31/05:00am 14.6 7.5 3.7 48 5.0 SSW 30 37 16 20 1014.6 1014.4 0.0
31/04:30am 14.4 6.9 3.2 47 5.1 SSW 32 41 17 22 1014.6 1014.4 0.0
31/04:00am 13.8 6.0 3.0 48 4.8 SW 33 43 18 23 1014.5 1014.3 0.0
31/03:30am 13.5 5.5 3.6 51 4.5 SW 35 43 19 23 1014.5 1014.3 0.0
31/03:00am 13.4 5.8 3.8 52 4.4 SW 33 43 18 23 1014.8 1014.6 0.0
31/02:30am 13.6 6.1 3.7 51 4.5 SW 32 39 17 21 1015.3 1015.1 0.0
31/02:00am 13.9 6.3 3.7 50 4.6 SW 33 39 18 21 1015.3 1015.1 0.0
31/01:30am 14.4 6.3 3.5 48 5.0 WSW 35 41 19 22 1015.4 1015.2 0.0
31/01:00am 14.7 7.3 3.8 48 5.0 WSW 32 39 17 21 1015.8 1015.6 0.0
31/12:30am 15.0 7.9 3.8 47 5.2 WSW 30 39 16 21 1016.1 1015.9 0.0
31/12:00am 15.4 8.3 3.5 45 5.5 WSW 30 37 16 20 1016.4 1016.2 0.0
 
Date/Time
EST
Temp
°C
App
Temp
°C
Dew
Point
Rel
Hum
%
Delta-T
°C
Wind Press
QNH
hPa
Press
MSL
hPa
Rain
since 9 am
mm
Dir
 
Spd
km/h
Gust
km/h
Spd
kts
Gust
kts
30/11:30pm 15.6 8.4 3.1 43 5.7 SW 30 41 16 22 1016.5 1016.3 0.0
30/11:00pm 15.8 8.9 2.6 41 6.0 SSW 28 37 15 20 1016.6 1016.4 0.0
30/10:30pm 16.1 8.5 2.9 41 6.0 SSW 32 46 17 25 1016.6 1016.4 0.0
30/10:00pm 16.1 9.4 3.5 43 5.8 SW 28 39 15 21 1016.6 1016.4 0.0
30/09:30pm 16.2 10.3 3.9 44 5.7 SW 24 32 13 17 1016.7 1016.5 0.0
30/09:00pm 16.8 10.5 3.8 42 6.1 SW 26 35 14 19 1016.6 1016.4 0.0
30/08:30pm 17.4 10.7 3.7 40 6.4 SSW 28 37 15 20 1016.5 1016.3 0.0
30/08:00pm 18.0 12.7 4.9 42 6.3 SSW 22 26 12 14 1016.4 1016.2 0.0
30/07:30pm 17.9 15.7 10.8 63 3.8 WSW 13 15 7 8 1016.0 1015.8 0.0
30/07:00pm 17.9 18.6 12.1 69 3.2 CALM 0 0 0 0 1015.6 1015.4 0.0
30/06:30pm 17.9 18.4 11.7 67 3.4 CALM 0 0 0 0 1015.3 1015.1 0.0
30/06:00pm 18.0 18.5 11.6 66 3.5 CALM 0 0 0 0 1014.9 1014.7 0.0
30/05:30pm 18.4 17.9 12.2 67 3.5 ENE 6 9 3 5 1014.6 1014.4 0.0
30/05:00pm 18.5 17.4 12.0 66 3.6 NE 9 13 5 7 1014.1 1013.9 0.0
30/04:30pm 19.2 18.1 12.0 63 4.0 ENE 9 13 5 7 1014.0 1013.8 0.0
30/04:00pm 19.3 17.6 11.3 60 4.4 ENE 11 13 6 7 1014.0 1013.8 0.0
30/03:30pm 19.1 17.5 11.7 62 4.1 ENE 11 17 6 9 1014.0 1013.8 0.0
30/03:00pm 19.7 18.2 12.0 61 4.3 E 11 15 6 8 1014.1 1013.9 0.0
30/02:30pm 19.2 17.9 11.3 60 4.3 E 9 13 5 7 1014.5 1014.3 0.0
30/02:00pm 19.3 17.3 11.6 61 4.3 ESE 13 17 7 9 1014.7 1014.5 0.0
30/01:30pm 19.3 18.0 11.1 59 4.5 ESE 9 13 5 7 1015.1 1014.9 0.0
30/01:00pm 19.2 17.9 11.3 60 4.3 ESE 9 13 5 7 1015.5 1015.3 0.0
30/12:30pm 19.2 18.0 11.7 62 4.2 SSE 9 13 5 7 1015.9 1015.7 0.0
30/12:00pm 19.5 18.4 13.0 66 3.7 SW 11 19 6 10 1016.3 1016.1 0.0
30/11:30am 17.9 16.1 12.1 69 3.2 SSW 13 22 7 12 1016.7 1016.5 0.0
30/11:00am 17.2 15.3 11.9 71 2.9 SSW 13 17 7 9 1017.2 1017.0 0.0
30/10:30am 17.3 15.0 11.6 69 3.1 SW 15 22 8 12 1017.6 1017.4 0.0
30/10:00am 17.3 16.2 13.2 77 2.3 WSW 11 15 6 8 1017.8 1017.6 0.0
30/09:30am 17.6 16.9 14.3 81 1.9 WSW 11 17 6 9 1017.9 1017.7 0.0
30/09:00am 16.5 14.4 13.6 83 1.6 SW 17 24 9 13 1018.1 1017.9 16.2
30/08:30am 16.3 14.3 14.0 86 1.3 SSW 17 26 9 14 1018.0 1017.8 16.2
30/08:00am 15.6 13.2 13.8 89 1.0 W 19 26 10 14 1017.5 1017.3 16.2
30/07:30am 15.2 12.5 13.6 90 0.9 W 20 26 11 14 1017.5 1017.3 16.2
30/07:00am 15.1 12.0 13.5 90 0.9 W 22 30 12 16 1017.4 1017.2 16.2
30/06:30am 15.3 13.3 13.8 91 0.8 W 17 22 9 12 1017.3 1017.1 16.2
30/06:00am 15.3 12.9 13.8 91 0.8 WSW 19 24 10 13 1016.9 1016.7 16.2
30/05:30am 15.7 14.2 14.1 90 0.9 WSW 15 17 8 9 1016.6 1016.4 16.2
30/05:00am 16.2 16.0 14.7 91 0.9 WNW 9 13 5 7 1016.2 1016.0 16.2
30/04:30am 16.2 17.3 14.7 91 0.9 NNE 2 6 1 3 1015.7 1015.5 16.0
30/04:00am 16.1 15.5 14.6 91 0.9 NNW 11 13 6 7 1016.8 1016.6 15.6
30/03:30am 16.1 16.3 14.6 91 0.9 NW 7 11 4 6 1016.5 1016.3 15.0
30/03:00am 16.0 15.7 14.5 91 0.9 SW 9 11 5 6 1017.3 1017.1 14.6
30/02:30am 15.9 15.2 14.4 91 0.9 SSW 11 15 6 8 1017.6 1017.4 14.4
30/02:00am 16.1 15.1 14.5 90 0.9 SSW 13 15 7 8 1017.6 1017.4 13.6
30/01:30am 16.3 15.7 14.7 90 0.9 SSW 11 13 6 7 1017.9 1017.7 12.6
30/01:00am 16.7 15.1 15.1 90 0.9 S 17 22 9 12 1018.3 1018.1 11.8
30/12:30am 16.8 15.7 15.2 90 0.9 S 15 17 8 9 1018.7 1018.5 10.6
30/12:00am 17.0 15.1 15.3 90 1.0 S 19 26 10 14 1019.1 1018.9 10.2
 
Date/Time
EST
Temp
°C
App
Temp
°C
Dew
Point
Rel
Hum
%
Delta-T
°C
Wind Press
QNH
hPa
Press
MSL
hPa
Rain
since 9 am
mm
Dir
 
Spd
km/h
Gust
km/h
Spd
kts
Gust
kts
29/11:30pm 17.1 13.6 15.4 90 1.0 SSW 28 33 15 18 1019.1 1018.9 10.0
29/11:00pm 17.1 13.6 15.4 90 1.0 S 28 33 15 18 1019.0 1018.8 10.0
29/10:30pm 17.4 11.8 15.6 89 1.1 S 39 48 21 26 1018.6 1018.4 10.0
29/10:00pm 17.0 10.5 15.2 89 1.0 S 43 52 23 28 1018.4 1018.2 10.0
29/09:30pm 16.8 11.5 15.3 91 0.9 SSE 37 46 20 25 1019.1 1018.9 10.0
29/09:00pm 16.4 11.3 14.9 91 0.9 S 35 44 19 24 1019.1 1018.9 9.6
29/08:30pm 16.1 8.3 14.1 88 1.1 S 48 59 26 32 1018.9 1018.7 6.2
29/08:20pm 17.6 16.6 14.7 83 1.7 SSE 13 46 7 25 1019.3 1019.1 5.6
29/08:00pm 19.9 18.6 16.9 83 1.8 NNE 19 32 10 17 1018.4 1018.2 0.6
29/07:30pm 20.3 20.3 17.3 83 1.8 NNE 13 20 7 11 1018.6 1018.4 0.2
29/07:00pm 20.0 18.8 17.0 83 1.8 NNE 19 28 10 15 1018.2 1018.0 0.2
29/06:30pm 20.2 17.7 17.2 83 1.8 NE 26 32 14 17 1017.6 1017.4 0.2
29/06:00pm 20.2 18.2 17.4 84 1.7 ENE 24 30 13 16 1017.6 1017.4 0.2
29/05:30pm 19.9 16.3 16.2 79 2.2 ENE 30 33 16 18 1017.5 1017.3 0.0
29/05:00pm 20.7 18.1 15.9 74 2.9 E 24 28 13 15 1017.2 1017.0 0.0
29/04:30pm 21.0 19.2 16.0 73 3.0 E 20 26 11 14 1017.6 1017.4 0.0
29/04:00pm 21.2 19.4 15.5 70 3.4 E 19 24 10 13 1017.8 1017.6 0.0
29/03:30pm 21.6 19.9 15.7 69 3.5 E 19 22 10 12 1018.0 1017.8 0.0
29/03:00pm 21.1 19.6 16.7 76 2.7 SSE 20 28 11 15 1018.2 1018.0 0.0
29/02:30pm 20.3 17.5 16.3 78 2.4 S 26 32 14 17 1018.5 1018.3 0.0
29/02:00pm 19.6 16.2 15.7 78 2.3 SSE 28 33 15 18 1018.8 1018.6 0.0
29/01:30pm 19.7 16.0 16.0 79 2.2 S 30 35 16 19 1019.5 1019.3 0.0
29/01:00pm 20.1 16.3 15.7 76 2.6 S 30 35 16 19 1020.0 1019.8 0.0
29/12:30pm 19.5 15.6 15.6 78 2.3 S 30 35 16 19 1020.4 1020.2 0.0
29/12:00pm 20.1 16.7 15.7 76 2.6 S 28 33 15 18 1020.6 1020.4 0.0
29/11:30am 20.0 16.9 15.6 76 2.6 SSE 26 32 14 17 1021.0 1020.8 0.0
29/11:00am 19.6 16.2 14.8 74 2.8 SSE 26 32 14 17 1021.5 1021.3 0.0
29/10:30am 19.0 14.7 14.5 75 2.6 SSE 30 35 16 19 1021.8 1021.6 0.0
29/10:00am 19.3 15.1 14.6 74 2.7 SSE 30 37 16 20 1022.1 1021.9 0.0
29/09:30am 19.5 14.4 14.7 74 2.8 SSE 35 43 19 23 1022.0 1021.8 0.0
29/09:00am 19.1 14.3 14.1 73 2.9 S 32 41 17 22 1022.1 1021.9 0.4
29/08:30am 19.1 14.2 14.4 74 2.7 S 33 41 18 22 1021.9 1021.7 0.4
29/08:00am 19.0 14.2 14.5 75 2.6 SSE 33 41 18 22 1021.6 1021.4 0.4
29/07:30am 18.7 14.0 14.4 76 2.5 SSE 32 41 17 22 1021.6 1021.4 0.4
29/07:00am 18.6 13.7 14.3 76 2.5 SSE 33 41 18 22 1021.2 1021.0 0.4
29/06:30am 18.7 13.5 14.4 76 2.5 SSE 35 43 19 23 1021.2 1021.0 0.4
29/06:00am 18.2 13.1 13.7 75 2.6 S 33 39 18 21 1020.8 1020.6 0.4
29/05:30am 18.2 12.8 13.9 76 2.5 S 35 43 19 23 1020.3 1020.1 0.4
29/05:00am 18.1 13.2 13.6 75 2.6 S 32 41 17 22 1020.0 1019.8 0.4
29/04:30am 17.7 12.6 13.2 75 2.5 S 32 37 17 20 1020.2 1020.0 0.4
29/04:00am 17.8 12.7 13.1 74 2.6 S 32 39 17 21 1020.0 1019.8 0.4
29/03:30am 18.1 13.0 13.8 76 2.5 S 33 41 18 22 1020.1 1019.9 0.4
29/03:00am 17.9 13.0 13.6 76 2.4 S 32 39 17 21 1020.3 1020.1 0.4
29/02:30am 17.8 13.5 14.3 80 2.0 S 30 37 16 20 1020.6 1020.4 0.4
29/02:00am 18.2 13.7 14.9 81 1.9 S 32 37 17 20 1020.7 1020.5 0.4
29/01:30am 17.8 14.5 14.9 83 1.7 S 26 32 14 17 1020.7 1020.5 0.4
29/01:00am 18.0 14.3 15.1 83 1.7 SSW 28 33 15 18 1021.4 1021.2 0.4
29/12:30am 18.2 14.7 15.5 84 1.6 S 28 35 15 19 1021.1 1020.9 0.4
29/12:00am 18.3 14.8 15.6 84 1.6 S 28 32 15 17 1021.2 1021.0 0.4
 
Date/Time
EST
Temp
°C
App
Temp
°C
Dew
Point
Rel
Hum
%
Delta-T
°C
Wind Press
QNH
hPa
Press
MSL
hPa
Rain
since 9 am
mm
Dir
 
Spd
km/h
Gust
km/h
Spd
kts
Gust
kts
28/11:30pm 18.3 15.9 15.4 83 1.7 S 22 30 12 16 1021.4 1021.2 0.4
28/11:00pm 19.4 18.2 16.2 82 1.9 SSE 17 20 9 11 1021.6 1021.4 0.4
28/10:30pm 19.1 17.6 16.3 84 1.7 SE 19 20 10 11 1021.2 1021.0 0.4
28/10:00pm 19.0 17.3 16.2 84 1.7 SE 20 22 11 12 1021.3 1021.1 0.4
28/09:30pm 19.3 17.8 16.2 82 1.9 ESE 19 22 10 12 1021.7 1021.5 0.4
28/09:00pm 19.1 17.3 15.6 80 2.1 ESE 19 20 10 11 1021.7 1021.5 0.4
28/08:30pm 19.2 17.3 15.7 80 2.1 E 20 24 11 13 1021.5 1021.3 0.4
28/08:00pm 19.1 16.9 16.0 82 1.8 ESE 22 28 12 15 1021.2 1021.0 0.4
28/07:30pm 18.9 16.2 15.6 81 2.0 SE 24 28 13 15 1020.8 1020.6 0.4
28/07:00pm 19.4 16.2 15.3 77 2.4 SE 26 32 14 17 1020.4 1020.2 0.4
28/06:30pm 19.6 16.1 14.6 73 2.9 SE 26 30 14 16 1020.0 1019.8 0.4
28/06:00pm 19.3 15.0 14.3 73 2.9 SE 30 33 16 18 1019.5 1019.3 0.4
28/05:30pm 19.1 14.3 14.6 75 2.6 SE 33 37 18 20 1019.3 1019.1 0.4
28/05:00pm 19.1 15.1 15.2 78 2.3 SE 30 35 16 19 1019.1 1018.9 0.4
28/04:30pm 19.5 14.9 14.5 73 2.9 SE 32 35 17 19 1018.8 1018.6 0.4
28/04:00pm 19.8 16.0 14.8 73 2.9 SE 28 33 15 18 1018.7 1018.5 0.4
28/03:30pm 20.1 16.4 14.9 72 3.1 SE 28 33 15 18 1018.6 1018.4 0.4
28/03:00pm 20.4 17.2 15.2 72 3.1 SE 26 30 14 16 1018.5 1018.3 0.4
28/02:30pm 20.4 17.9 15.2 72 3.1 SE 22 26 12 14 1018.9 1018.7 0.4
28/02:00pm 20.4 17.4 14.7 70 3.3 SE 24 26 13 14 1018.9 1018.7 0.4
28/01:30pm 19.8 16.4 14.8 73 2.9 SSE 26 33 14 18 1019.2 1019.0 0.4
28/01:00pm 20.7 18.4 15.7 73 3.0 SSE 22 28 12 15 1019.4 1019.2 0.4
28/12:30pm 20.6 18.8 16.0 75 2.8 SSE 20 24 11 13 1020.0 1019.8 0.4
28/12:00pm 19.7 17.5 16.0 79 2.2 SSE 22 28 12 15 1020.6 1020.4 0.4
28/11:30am 19.9 18.9 17.5 86 1.5 SSE 19 24 10 13 1021.1 1020.9 0.4
28/11:00am 19.0 17.8 17.1 89 1.2 S 19 22 10 12 1021.6 1021.4 0.4
28/10:30am 18.9 18.0 16.9 88 1.2 SSW 17 20 9 11 1021.8 1021.6 0.4
28/10:00am 19.3 18.3 16.7 85 1.6 S 17 22 9 12 1022.0 1021.8 0.0
28/09:30am 19.7 19.4 16.5 82 1.9 S 13 17 7 9 1022.1 1021.9 0.0
28/09:00am 21.0 23.4 18.0 83 1.9 SW 2 7 1 4 1022.2 1022.0 0.0
28/08:30am 20.5 22.0 17.7 84 1.7 W 6 9 3 5 1021.9 1021.7 0.0

Other Formats:

Comma delimited format used in spreadsheet applications
http://www.bom.gov.au/fwo/IDQ60801/IDQ60801.94584.axf

JavaScript Object Notation format (JSON) in row-major order
http://www.bom.gov.au/fwo/IDQ60801/IDQ60801.94584.json